Time;durP1;ratioP1;P1;durP2;ratioP2;P2;SDS_P1;SDS_P2;PMS_P1;PMS_P2;Temp;Humidity;BMP_temperature;BMP_pressure;BME280_temperature;BME280_humidity;BME280_pressure;Samples;Min_cycle;Max_cycle;Signal;HPM_P1;HPM_P2
2021/06/02 00:00:13;;;;;;;0.10;0.10;;;17.10;99.90;;;;;;5067824;28;20387;-85
2021/06/02 00:02:47;;;;;;;0.30;0.30;;;17.10;99.90;;;;;;5067605;28;20016;-85
2021/06/02 00:05:14;;;;;;;0.10;0.10;;;17.10;99.90;;;;;;5068692;28;20027;-85
2021/06/02 00:07:41;;;;;;;0.10;0.10;;;17.10;99.90;;;;;;5067318;28;20037;-85
2021/06/02 00:10:09;;;;;;;0.00;0.00;;;17.10;99.90;;;;;;5068381;28;20048;-85
2021/06/02 00:12:35;;;;;;;0.00;0.00;;;17.10;99.90;;;;;;5068406;28;20024;-85
2021/06/02 00:15:03;;;;;;;0.50;0.50;;;17.00;99.90;;;;;;5066883;28;20048;-85
2021/06/02 00:17:29;;;;;;;0.10;0.10;;;17.00;99.90;;;;;;5068778;28;20029;-85
2021/06/02 00:19:55;;;;;;;0.07;0.07;;;17.00;99.90;;;;;;5066975;28;20107;-85
2021/06/02 00:22:21;;;;;;;0.25;0.17;;;17.00;99.90;;;;;;5067078;28;20082;-85
2021/06/02 00:24:47;;;;;;;0.10;0.10;;;16.90;99.90;;;;;;5069114;28;20032;-84
2021/06/02 00:27:13;;;;;;;0.10;0.10;;;16.80;99.90;;;;;;5068226;28;20039;-84
2021/06/02 00:29:42;;;;;;;0.20;0.20;;;16.80;99.90;;;;;;5066582;28;20520;-84
2021/06/02 00:32:09;;;;;;;0.20;0.20;;;16.80;99.90;;;;;;5067900;28;20372;-84
2021/06/02 00:34:35;;;;;;;;;;;16.90;99.90;;;;;;5068942;28;20849;-85
2021/06/02 00:37:03;;;;;;;0.10;0.10;;;16.90;99.90;;;;;;5066648;28;19946;-84
2021/06/02 00:39:30;;;;;;;0.05;0.05;;;17.00;99.90;;;;;;5067239;28;20070;-84
2021/06/02 00:41:56;;;;;;;;;;;17.00;99.90;;;;;;5066914;28;20035;-84
2021/06/02 00:44:23;;;;;;;0.20;0.20;;;17.00;99.90;;;;;;5066741;28;19908;-86
2021/06/02 00:46:50;;;;;;;0.10;0.10;;;17.00;99.90;;;;;;5068597;28;20517;-85
2021/06/02 00:49:24;;;;;;;0.10;0.10;;;17.00;99.90;;;;;;5067893;28;20056;-86
2021/06/02 00:51:54;;;;;;;0.38;0.38;;;17.00;99.90;;;;;;5067300;28;20077;-86
2021/06/02 00:54:21;;;;;;;0.28;0.28;;;16.90;99.90;;;;;;5066676;28;20457;-86
2021/06/02 00:56:50;;;;;;;;;;;17.00;99.90;;;;;;5068651;28;20727;-85
2021/06/02 00:59:31;;;;;;;0.47;0.20;;;17.00;99.90;;;;;;5068143;28;19912;-86
2021/06/02 01:01:59;;;;;;;0.73;0.30;;;17.00;99.90;;;;;;5068145;28;20025;-86
2021/06/02 01:04:29;;;;;;;0.10;0.10;;;17.00;99.90;;;;;;5068320;28;20036;-86
2021/06/02 01:06:56;;;;;;;0.22;0.22;;;17.00;99.90;;;;;;5068137;28;20556;-86
2021/06/02 01:09:24;;;;;;;0.20;0.20;;;17.00;99.90;;;;;;5065546;28;20762;-87
2021/06/02 01:11:51;;;;;;;0.10;0.10;;;17.00;99.90;;;;;;5066684;28;20037;-87
2021/06/02 01:14:20;;;;;;;0.00;0.00;;;17.00;99.90;;;;;;5066704;28;20024;-86
2021/06/02 01:16:47;;;;;;;0.10;0.10;;;16.90;99.90;;;;;;5068476;28;20056;-86
2021/06/02 01:19:18;;;;;;;0.10;0.10;;;16.90;99.90;;;;;;5067204;28;20066;-86
2021/06/02 01:21:59;;;;;;;0.20;0.20;;;16.90;99.90;;;;;;5066310;28;20169;-86
2021/06/02 01:24:30;;;;;;;2.05;0.68;;;16.90;99.90;;;;;;5066185;28;20071;-86
2021/06/02 01:27:00;;;;;;;1.85;0.63;;;17.00;99.90;;;;;;5068315;28;20115;-86
2021/06/02 01:29:27;;;;;;;0.20;0.20;;;16.90;99.90;;;;;;5067094;28;20045;-86
2021/06/02 01:32:05;;;;;;;;;;;16.90;99.90;;;;;;5068423;28;20629;-86
2021/06/02 01:34:52;;;;;;;0.20;0.20;;;16.90;99.90;;;;;;5067510;28;19914;-86
2021/06/02 01:37:27;;;;;;;0.35;0.32;;;16.90;99.90;;;;;;5066196;28;20028;-86
2021/06/02 01:40:32;;;;;;;0.10;0.10;;;16.90;99.90;;;;;;5066682;28;20021;-86
2021/06/02 01:43:16;;;;;;;0.20;0.20;;;16.90;99.90;;;;;;5067148;28;20028;-86
2021/06/02 01:46:09;;;;;;;0.20;0.20;;;16.90;99.90;;;;;;5066113;28;20035;-86
2021/06/02 01:48:43;;;;;;;0.15;0.15;;;16.90;99.90;;;;;;5066587;28;20051;-86
2021/06/02 01:51:27;;;;;;;0.10;0.10;;;16.80;99.90;;;;;;5066422;28;20039;-86
2021/06/02 01:54:01;;;;;;;0.10;0.10;;;16.90;99.90;;;;;;5068063;28;20514;-86
2021/06/02 01:56:51;;;;;;;0.52;0.35;;;16.80;99.90;;;;;;5068082;28;20401;-87
2021/06/02 01:59:32;;;;;;;0.43;0.43;;;16.90;99.90;;;;;;5065772;28;20021;-87
2021/06/02 02:02:19;;;;;;;0.22;0.22;;;16.80;99.90;;;;;;5066553;28;20075;-87
2021/06/02 02:05:03;;;;;;;0.20;0.20;;;16.80;99.90;;;;;;5068336;28;20028;-86
2021/06/02 02:07:56;;;;;;;0.10;0.10;;;16.80;99.90;;;;;;5070807;28;20036;-87
2021/06/02 02:10:40;;;;;;;3.65;0.38;;;16.80;99.90;;;;;;5069586;28;20435;-87
2021/06/02 02:13:29;;;;;;;0.43;0.30;;;16.80;99.90;;;;;;5071094;28;20058;-87
2021/06/02 02:16:06;;;;;;;0.47;0.47;;;16.80;99.90;;;;;;5051549;28;20040;-86
2021/06/02 02:18:45;;;;;;;0.10;0.10;;;16.70;99.90;;;;;;5067961;28;20036;-87
2021/06/02 02:21:48;;;;;;;0.35;0.30;;;16.80;99.90;;;;;;5050724;28;20149;-87
2021/06/02 02:24:22;;;;;;;0.30;0.30;;;16.70;99.90;;;;;;5051046;28;20024;-87
2021/06/02 02:27:16;;;;;;;0.10;0.10;;;16.70;99.90;;;;;;5068396;28;20041;-87
2021/06/02 02:30:11;;;;;;;0.20;0.20;;;16.70;99.90;;;;;;5067964;28;20045;-86
2021/06/02 02:32:47;;;;;;;0.35;0.35;;;16.70;99.90;;;;;;5068595;28;20081;-87
2021/06/02 02:35:50;;;;;;;0.10;0.10;;;16.60;99.90;;;;;;5068379;28;20061;-87
2021/06/02 02:38:30;;;;;;;0.00;0.00;;;16.70;99.90;;;;;;5065517;28;20082;-86
2021/06/02 02:41:40;;;;;;;0.10;0.10;;;16.60;99.90;;;;;;5068646;28;20041;-86
2021/06/02 02:44:12;;;;;;;0.20;0.20;;;16.60;99.90;;;;;;5068468;28;20117;-87
2021/06/02 02:46:51;;;;;;;0.20;0.20;;;16.50;99.90;;;;;;5067919;28;20171;-87
2021/06/02 02:49:45;;;;;;;0.20;0.20;;;16.50;99.90;;;;;;5068290;28;20051;-87
2021/06/02 02:52:46;;;;;;;0.40;0.40;;;16.50;99.90;;;;;;5065378;28;20044;-86
2021/06/02 02:55:40;;;;;;;1.20;0.35;;;16.60;99.90;;;;;;5069631;28;20035;-86
2021/06/02 02:58:28;;;;;;;0.28;0.28;;;16.50;99.90;;;;;;5068157;28;20055;-86
2021/06/02 03:00:59;;;;;;;0.10;0.10;;;16.50;99.90;;;;;;5065911;28;20029;-86
2021/06/02 03:03:31;;;;;;;0.25;0.25;;;16.50;99.90;;;;;;5070578;28;20612;-86
2021/06/02 03:06:18;;;;;;;0.20;0.20;;;16.60;99.90;;;;;;5069966;28;20115;-86
2021/06/02 03:08:57;;;;;;;0.10;0.10;;;16.70;99.90;;;;;;5069961;28;20024;-86
2021/06/02 03:11:41;;;;;;;0.28;0.10;;;16.60;99.90;;;;;;5069887;28;20021;-86
2021/06/02 03:14:18;;;;;;;0.63;0.38;;;16.70;99.90;;;;;;5070484;28;20085;-86
2021/06/02 03:16:57;;;;;;;0.20;0.20;;;16.70;99.90;;;;;;5069510;28;20710;-86
2021/06/02 03:19:50;;;;;;;0.10;0.10;;;16.60;99.90;;;;;;5070109;28;20378;-86
2021/06/02 03:22:21;;;;;;;0.60;0.60;;;16.60;99.90;;;;;;5069618;28;20028;-87
2021/06/02 03:25:09;;;;;;;0.10;0.10;;;16.60;99.90;;;;;;5068555;28;20029;-87
2021/06/02 03:28:09;;;;;;;0.17;0.17;;;16.50;99.90;;;;;;5068388;28;20048;-87
2021/06/02 03:30:40;;;;;;;0.20;0.20;;;16.50;99.90;;;;;;5070185;28;20502;-87
2021/06/02 03:33:16;;;;;;;1.15;0.65;;;16.60;99.90;;;;;;5068148;28;20024;-87
2021/06/02 03:36:10;;;;;;;0.57;0.57;;;16.60;99.90;;;;;;5069000;28;20020;-87
2021/06/02 03:38:49;;;;;;;0.25;0.25;;;16.60;99.90;;;;;;5067397;28;20405;-87
2021/06/02 03:41:35;;;;;;;0.20;0.20;;;16.60;99.90;;;;;;5068470;28;20493;-87
2021/06/02 03:44:19;;;;;;;0.10;0.10;;;16.50;99.90;;;;;;5068598;28;20508;-87
2021/06/02 03:47:03;;;;;;;4.25;0.55;;;16.50;99.90;;;;;;5068091;28;20135;-87
2021/06/02 03:50:02;;;;;;;0.52;0.52;;;16.50;99.90;;;;;;5069684;28;20029;-87
2021/06/02 03:53:05;;;;;;;0.10;0.10;;;16.50;99.90;;;;;;5065559;28;20143;-87
2021/06/02 03:55:53;;;;;;;0.22;0.22;;;16.60;99.90;;;;;;5062880;28;20063;-86
2021/06/02 03:58:49;;;;;;;0.68;0.68;;;16.60;99.90;;;;;;5069648;28;20035;-86
2021/06/02 04:01:21;;;;;;;0.00;0.00;;;16.50;99.90;;;;;;5069037;28;20382;-86
2021/06/02 04:04:12;;;;;;;0.10;0.10;;;16.50;99.90;;;;;;5068379;28;20489;-85
2021/06/02 04:07:00;;;;;;;0.30;0.30;;;16.50;99.90;;;;;;5059294;28;20024;-85
2021/06/02 04:09:27;;;;;;;0.55;0.20;;;16.50;99.90;;;;;;5060877;28;20024;-87
2021/06/02 04:11:59;;;;;;;0.20;0.20;;;16.50;99.90;;;;;;5068570;28;20117;-87
2021/06/02 04:14:36;;;;;;;0.10;0.10;;;16.60;99.90;;;;;;5069191;28;20028;-86
2021/06/02 04:17:09;;;;;;;0.15;0.15;;;16.50;99.90;;;;;;5068006;28;20570;-86
2021/06/02 04:19:41;;;;;;;0.20;0.20;;;16.60;99.90;;;;;;5068861;28;20028;-86
2021/06/02 04:22:08;;;;;;;0.25;0.25;;;16.60;99.90;;;;;;5068217;28;20027;-86
2021/06/02 04:24:35;;;;;;;;;;;16.60;99.90;;;;;;5068050;28;20028;-86
2021/06/02 04:27:02;;;;;;;0.10;0.10;;;16.60;99.90;;;;;;5068113;28;20296;-86
2021/06/02 04:29:28;;;;;;;0.20;0.20;;;16.70;99.90;;;;;;5067763;28;20047;-85
2021/06/02 04:32:00;;;;;;;0.00;0.00;;;16.60;99.90;;;;;;5067609;28;20031;-85
2021/06/02 04:34:27;;;;;;;0.00;0.00;;;16.70;99.90;;;;;;5067392;28;20390;-85
2021/06/02 04:36:55;;;;;;;0.10;0.10;;;16.70;99.90;;;;;;5066967;28;20029;-86
2021/06/02 04:39:22;;;;;;;0.20;0.20;;;16.70;99.90;;;;;;5068151;28;20029;-85
2021/06/02 04:41:48;;;;;;;0.10;0.10;;;16.70;99.90;;;;;;5068036;28;20058;-85
2021/06/02 04:44:16;;;;;;;0.08;0.08;;;16.60;99.90;;;;;;5066765;28;20032;-83
2021/06/02 04:46:46;;;;;;;1.75;0.93;;;16.70;99.90;;;;;;5068525;28;20027;-84
2021/06/02 04:49:16;;;;;;;0.25;0.25;;;16.70;99.90;;;;;;5067913;28;20135;-83
2021/06/02 04:51:59;;;;;;;0.20;0.20;;;16.70;99.90;;;;;;5068420;28;20021;-84
2021/06/02 04:54:58;;;;;;;0.20;0.20;;;16.70;99.90;;;;;;5067797;28;20020;-83
2021/06/02 04:57:36;;;;;;;0.43;0.35;;;16.70;99.90;;;;;;5067133;28;20047;-84
2021/06/02 05:00:30;;;;;;;0.10;0.10;;;16.80;99.90;;;;;;5067311;28;20031;-83
2021/06/02 05:03:11;;;;;;;0.10;0.10;;;16.90;99.90;;;;;;5067653;28;20036;-84
2021/06/02 05:06:10;;;;;;;0.30;0.30;;;16.90;99.90;;;;;;5068352;28;20133;-84
2021/06/02 05:09:01;;;;;;;0.10;0.10;;;16.90;99.90;;;;;;5066305;28;20028;-84
2021/06/02 05:11:56;;;;;;;0.10;0.10;;;16.90;99.90;;;;;;5068294;28;20104;-84
2021/06/02 05:14:50;;;;;;;4.28;1.05;;;16.80;99.90;;;;;;5058468;28;20067;-83
2021/06/02 05:17:40;;;;;;;0.10;0.10;;;16.80;99.90;;;;;;5064379;28;20071;-80
2021/06/02 05:20:24;;;;;;;0.45;0.45;;;16.70;99.90;;;;;;5058415;28;20061;-80
2021/06/02 05:23:09;;;;;;;0.00;0.00;;;16.70;99.90;;;;;;5059249;28;20041;-79
2021/06/02 05:26:12;;;;;;;0.35;0.35;;;16.70;99.90;;;;;;5057426;28;20809;-79
2021/06/02 05:29:01;;;;;;;0.17;0.17;;;16.70;99.90;;;;;;5059416;28;20088;-84
2021/06/02 05:31:48;;;;;;;0.10;0.10;;;17.00;99.90;;;;;;5060124;28;20016;-86
2021/06/02 05:34:27;;;;;;;0.10;0.10;;;17.00;99.90;;;;;;5055869;28;20243;-84
2021/06/02 05:36:53;;;;;;;0.10;0.10;;;17.00;99.90;;;;;;5061141;28;20025;-85
2021/06/02 05:39:46;;;;;;;0.10;0.10;;;17.00;99.90;;;;;;5067238;28;20397;-83
2021/06/02 05:42:25;;;;;;;0.10;0.10;;;17.00;99.90;;;;;;5071517;28;20033;-85
2021/06/02 05:45:15;;;;;;;0.30;0.30;;;17.00;99.90;;;;;;5071849;28;20108;-84
2021/06/02 05:48:00;;;;;;;0.20;0.20;;;16.90;99.90;;;;;;5072179;28;20031;-84
2021/06/02 05:50:29;;;;;;;0.52;0.50;;;16.90;99.90;;;;;;5071465;28;20485;-84
2021/06/02 05:53:32;;;;;;;0.10;0.10;;;16.90;99.90;;;;;;5070155;28;20824;-85
2021/06/02 05:56:20;;;;;;;0.10;0.10;;;16.90;99.90;;;;;;5070252;28;20032;-85
2021/06/02 05:59:05;;;;;;;0.80;0.63;;;16.90;99.90;;;;;;5069261;28;20479;-86
2021/06/02 06:01:56;;;;;;;0.32;0.32;;;17.00;99.90;;;;;;5050078;28;20024;-85
2021/06/02 06:04:31;;;;;;;0.10;0.10;;;17.10;99.90;;;;;;5050805;28;20442;-85
2021/06/02 06:07:18;;;;;;;0.10;0.10;;;17.10;99.90;;;;;;5066997;28;20035;-84
2021/06/02 06:10:28;;;;;;;0.10;0.10;;;17.10;99.90;;;;;;5072136;28;20040;-85
2021/06/02 06:13:15;;;;;;;0.10;0.10;;;17.10;99.90;;;;;;5070653;28;20033;-85
2021/06/02 06:16:29;;;;;;;0.00;0.00;;;17.00;99.90;;;;;;5070674;28;20032;-85
2021/06/02 06:19:02;;;;;;;0.10;0.10;;;17.10;99.90;;;;;;5069901;28;20047;-84
2021/06/02 06:21:40;;;;;;;0.10;0.10;;;17.20;99.90;;;;;;5070509;28;20478;-85
2021/06/02 06:24:14;;;;;;;0.20;0.20;;;17.20;99.90;;;;;;5085766;28;20012;-86
2021/06/02 06:26:45;;;;;;;0.05;0.05;;;17.20;99.90;;;;;;5050946;28;20040;-86
2021/06/02 06:29:33;;;;;;;0.32;0.32;;;17.20;99.90;;;;;;5051539;28;20044;-86
2021/06/02 06:32:00;;;;;;;0.10;0.10;;;17.10;99.90;;;;;;5051760;28;20029;-87
2021/06/02 06:34:30;;;;;;;0.35;0.35;;;17.00;99.90;;;;;;5051515;28;20033;-86
2021/06/02 06:36:58;;;;;;;1.65;0.65;;;17.00;99.90;;;;;;5051542;28;20021;-86
2021/06/02 06:39:57;;;;;;;0.77;0.73;;;16.90;99.90;;;;;;5051578;28;20653;-86
2021/06/02 06:42:28;;;;;;;0.50;0.50;;;17.00;99.90;;;;;;5051541;28;20025;-86
2021/06/02 06:44:58;;;;;;;2.17;1.02;;;16.90;99.90;;;;;;5051564;28;20762;-86
2021/06/02 06:47:25;;;;;;;0.10;0.10;;;17.00;99.90;;;;;;5050107;28;20074;-86
2021/06/02 06:49:55;;;;;;;0.15;0.15;;;17.00;99.90;;;;;;5051118;28;20044;-86
2021/06/02 06:52:26;;;;;;;0.32;0.30;;;17.00;99.90;;;;;;5050956;28;20021;-86
2021/06/02 06:54:56;;;;;;;0.20;0.20;;;17.00;99.90;;;;;;5049893;28;20029;-86
2021/06/02 06:57:22;;;;;;;0.05;0.05;;;17.00;99.90;;;;;;5051405;28;20025;-86
2021/06/02 06:59:50;;;;;;;0.13;0.13;;;17.00;99.90;;;;;;5049593;28;20032;-86
2021/06/02 07:02:16;;;;;;;0.40;0.40;;;17.00;99.90;;;;;;5049742;28;20029;-85
2021/06/02 07:04:43;;;;;;;0.05;0.05;;;17.00;99.90;;;;;;5049682;28;20509;-86
2021/06/02 07:07:10;;;;;;;0.30;0.30;;;17.10;99.90;;;;;;5051083;28;20056;-86
2021/06/02 07:09:37;;;;;;;0.40;0.40;;;17.20;99.90;;;;;;5050803;28;20029;-86
2021/06/02 07:12:03;;;;;;;0.15;0.15;;;17.30;99.90;;;;;;5049838;28;20392;-86
2021/06/02 07:14:30;;;;;;;0.30;0.30;;;17.20;99.90;;;;;;5049532;28;20116;-86
2021/06/02 07:17:06;;;;;;;0.15;0.15;;;17.20;99.90;;;;;;5049246;28;20402;-86
2021/06/02 07:19:40;;;;;;;0.10;0.10;;;17.30;99.90;;;;;;5050681;28;20516;-86
2021/06/02 07:22:07;;;;;;;0.30;0.20;;;17.30;99.90;;;;;;5050646;28;20033;-86
2021/06/02 07:24:34;;;;;;;0.25;0.25;;;17.50;99.90;;;;;;5050914;28;20548;-86
2021/06/02 07:27:00;;;;;;;0.22;0.22;;;17.70;99.90;;;;;;5049201;28;20898;-86
2021/06/02 07:29:27;;;;;;;0.20;0.20;;;17.70;99.90;;;;;;5050249;28;20041;-86
2021/06/02 07:31:53;;;;;;;0.20;0.20;;;17.60;99.90;;;;;;5050456;28;20029;-86
2021/06/02 07:34:21;;;;;;;0.20;0.20;;;17.50;99.90;;;;;;5050558;28;20112;-86
2021/06/02 07:36:47;;;;;;;0.00;0.00;;;17.60;99.90;;;;;;5050217;28;20057;-86
2021/06/02 07:39:13;;;;;;;0.30;0.30;;;17.50;99.90;;;;;;5049114;28;20406;-86
2021/06/02 07:41:39;;;;;;;0.10;0.10;;;17.50;99.90;;;;;;5049108;28;20029;-87
2021/06/02 07:44:05;;;;;;;0.20;0.20;;;17.30;99.90;;;;;;5050288;28;20032;-86
2021/06/02 07:46:35;;;;;;;0.20;0.20;;;17.40;99.90;;;;;;5050484;28;20032;-86
2021/06/02 07:49:04;;;;;;;0.20;0.20;;;17.50;99.90;;;;;;5050030;28;20037;-85
2021/06/02 07:51:30;;;;;;;0.30;0.30;;;17.40;99.90;;;;;;5048895;28;20416;-85
2021/06/02 07:53:56;;;;;;;0.23;0.23;;;17.40;99.90;;;;;;5048265;28;20029;-85
2021/06/02 07:56:22;;;;;;;0.33;0.33;;;17.30;99.90;;;;;;5049044;28;20494;-86
2021/06/02 07:58:48;;;;;;;0.83;0.80;;;17.50;99.90;;;;;;5048496;28;20025;-86
2021/06/02 08:01:13;;;;;;;0.20;0.20;;;17.60;99.90;;;;;;5049768;28;20013;-86
2021/06/02 08:03:39;;;;;;;0.13;0.13;;;18.10;99.90;;;;;;5047829;28;20029;-86
2021/06/02 08:06:05;;;;;;;0.40;0.20;;;18.10;99.90;;;;;;5049716;28;20048;-86
2021/06/02 08:08:31;;;;;;;0.20;0.20;;;18.40;99.90;;;;;;5049831;28;20066;-86
2021/06/02 08:10:57;;;;;;;0.20;0.20;;;18.70;99.90;;;;;;5049683;28;20500;-86
2021/06/02 08:13:23;;;;;;;0.30;0.30;;;18.70;99.90;;;;;;5048158;28;20457;-86
2021/06/02 08:15:49;;;;;;;0.30;0.30;;;18.40;99.90;;;;;;5049812;28;20079;-86
2021/06/02 08:18:15;;;;;;;0.43;0.43;;;18.50;99.90;;;;;;5049542;28;20025;-86
2021/06/02 08:20:41;;;;;;;0.03;0.03;;;19.10;99.90;;;;;;5049695;28;20021;-86
2021/06/02 08:23:07;;;;;;;0.00;0.00;;;19.60;99.90;;;;;;5056332;28;20021;-86
2021/06/02 08:25:34;;;;;;;0.10;0.10;;;18.90;99.90;;;;;;5068243;28;20036;-86
2021/06/02 08:28:00;;;;;;;0.15;0.15;;;19.00;99.90;;;;;;5068861;28;20028;-86
2021/06/02 08:30:26;;;;;;;0.10;0.10;;;18.80;99.90;;;;;;5068252;28;20037;-86
2021/06/02 08:32:52;;;;;;;0.10;0.10;;;19.10;99.90;;;;;;5069233;28;20025;-86
2021/06/02 08:35:18;;;;;;;3.42;1.35;;;18.70;99.90;;;;;;5067722;28;20081;-86
2021/06/02 08:37:45;;;;;;;0.15;0.15;;;18.70;99.90;;;;;;5067915;28;20028;-86
2021/06/02 08:40:12;;;;;;;;;;;18.90;99.90;;;;;;5069541;28;20020;-85
2021/06/02 08:42:47;;;;;;;0.17;0.17;;;18.50;99.90;;;;;;5067719;28;19908;-86
2021/06/02 08:45:15;;;;;;;0.17;0.17;;;18.40;99.90;;;;;;5068874;28;20021;-86
2021/06/02 08:47:44;;;;;;;0.20;0.20;;;18.40;99.90;;;;;;5069009;28;20050;-85
2021/06/02 08:50:13;;;;;;;0.10;0.10;;;18.40;99.90;;;;;;5068770;28;20029;-85
2021/06/02 08:52:40;;;;;;;0.20;0.20;;;18.40;99.90;;;;;;5068790;28;20052;-85
2021/06/02 08:55:13;;;;;;;0.15;0.15;;;18.60;99.90;;;;;;5068586;28;20016;-84
2021/06/02 08:57:42;;;;;;;0.00;0.00;;;18.30;99.90;;;;;;5068795;28;20024;-84
2021/06/02 09:00:10;;;;;;;0.15;0.15;;;18.20;99.90;;;;;;5067001;28;20032;-84
2021/06/02 09:02:40;;;;;;;0.08;0.08;;;17.80;99.90;;;;;;5067414;28;20051;-84
2021/06/02 09:05:08;;;;;;;0.00;0.00;;;17.80;99.90;;;;;;5067286;28;20402;-84
2021/06/02 09:07:37;;;;;;;0.00;0.00;;;17.80;99.90;;;;;;5068524;28;20031;-85
2021/06/02 09:10:04;;;;;;;1.10;0.68;;;18.00;99.90;;;;;;5068139;28;20070;-84
2021/06/02 09:12:35;;;;;;;0.65;0.60;;;17.60;99.90;;;;;;5067982;28;20051;-85
2021/06/02 09:15:06;;;;;;;0.35;0.08;;;17.50;99.90;;;;;;5068119;28;20032;-85
2021/06/02 09:17:46;;;;;;;0.10;0.10;;;17.60;99.90;;;;;;5066842;28;20029;-85
2021/06/02 09:20:12;;;;;;;0.10;0.10;;;17.80;99.90;;;;;;5068200;28;20037;-85
2021/06/02 09:22:38;;;;;;;0.10;0.10;;;17.80;99.90;;;;;;5071297;28;20031;-85
2021/06/02 09:25:04;;;;;;;0.10;0.10;;;17.70;99.90;;;;;;5073913;28;20519;-85
2021/06/02 09:27:50;;;;;;;0.10;0.10;;;17.60;99.90;;;;;;5067924;28;20565;-84
2021/06/02 09:30:24;;;;;;;0.10;0.10;;;17.80;99.90;;;;;;5067926;28;20028;-84
2021/06/02 09:32:59;;;;;;;1.45;0.70;;;18.10;99.90;;;;;;5068383;28;20033;-86
2021/06/02 09:35:38;;;;;;;0.20;0.20;;;17.60;99.90;;;;;;5066765;28;20039;-85
2021/06/02 09:38:06;;;;;;;0.10;0.10;;;17.10;99.90;;;;;;5066820;28;21000;-85
2021/06/02 09:40:38;;;;;;;0.10;0.10;;;17.30;99.90;;;;;;5067804;28;20020;-85
2021/06/02 09:43:06;;;;;;;0.20;0.20;;;17.50;99.90;;;;;;5068115;28;20021;-85
2021/06/02 09:45:32;;;;;;;0.15;0.15;;;17.90;99.90;;;;;;5066576;28;20490;-85
2021/06/02 09:48:04;;;;;;;0.10;0.10;;;17.60;99.90;;;;;;5067976;28;20016;-85
2021/06/02 09:50:38;;;;;;;0.10;0.10;;;17.70;99.90;;;;;;5067917;28;20102;-85
2021/06/02 09:53:07;;;;;;;0.20;0.20;;;18.20;99.90;;;;;;5066739;28;20017;-85
2021/06/02 09:55:41;;;;;;;1.85;0.40;;;18.00;99.90;;;;;;5066623;28;20024;-86
2021/06/02 09:58:07;;;;;;;0.10;0.10;;;18.30;99.90;;;;;;5067879;28;20024;-85
2021/06/02 10:00:34;;;;;;;0.37;0.37;;;18.50;99.90;;;;;;5066584;28;20024;-85
2021/06/02 10:03:10;;;;;;;0.28;0.28;;;18.60;99.90;;;;;;5068006;28;20028;-85
2021/06/02 10:05:39;;;;;;;0.13;0.10;;;18.30;99.90;;;;;;5067878;28;20027;-85
2021/06/02 10:08:06;;;;;;;0.05;0.05;;;18.70;99.90;;;;;;5066756;28;20642;-85
2021/06/02 10:10:32;;;;;;;0.13;0.10;;;19.10;99.90;;;;;;5066440;28;20017;-85
2021/06/02 10:12:59;;;;;;;0.20;0.20;;;19.50;99.90;;;;;;5067948;28;20056;-85
2021/06/02 10:15:42;;;;;;;0.10;0.10;;;19.20;99.90;;;;;;5067865;28;20020;-85
2021/06/02 10:18:30;;;;;;;0.32;0.20;;;19.40;99.90;;;;;;5067829;28;20028;-85
2021/06/02 10:20:59;;;;;;;0.00;0.00;;;18.50;99.90;;;;;;5067883;28;20021;-85
2021/06/02 10:23:26;;;;;;;0.20;0.20;;;18.60;99.90;;;;;;5067978;28;20035;-85
2021/06/02 10:25:52;;;;;;;0.30;0.30;;;18.50;99.90;;;;;;5066574;28;20012;-85
2021/06/02 10:28:19;;;;;;;0.17;0.10;;;18.40;99.90;;;;;;5067318;28;20048;-85
2021/06/02 10:30:47;;;;;;;0.00;0.00;;;18.40;99.90;;;;;;5054098;28;20029;-85
2021/06/02 10:33:13;;;;;;;0.10;0.10;;;18.30;99.90;;;;;;5059533;28;20028;-85
2021/06/02 10:35:39;;;;;;;0.22;0.22;;;18.50;99.90;;;;;;5060701;28;20402;-85
2021/06/02 10:38:07;;;;;;;0.20;0.20;;;18.60;99.90;;;;;;5061047;28;20036;-85
2021/06/02 10:40:35;;;;;;;0.20;0.20;;;18.60;99.90;;;;;;5067599;28;20533;-86
2021/06/02 10:43:35;;;;;;;0.10;0.10;;;18.50;99.90;;;;;;5059868;28;20055;-86
2021/06/02 10:46:21;;;;;;;0.08;0.08;;;18.60;99.90;;;;;;5063371;28;20093;-85
2021/06/02 10:48:51;;;;;;;0.10;0.10;;;18.70;99.90;;;;;;5065700;28;20028;-86
2021/06/02 10:51:44;;;;;;;0.00;0.00;;;18.70;99.90;;;;;;5065337;28;20519;-86
2021/06/02 10:54:21;;;;;;;0.10;0.10;;;18.60;99.90;;;;;;5055092;28;20043;-87
2021/06/02 10:57:07;;;;;;;0.00;0.00;;;18.40;99.90;;;;;;5064169;28;20429;-86
2021/06/02 10:59:36;;;;;;;0.10;0.10;;;18.50;99.90;;;;;;5061289;28;20493;-86
2021/06/02 11:02:07;;;;;;;0.15;0.15;;;18.50;99.90;;;;;;5056206;28;20020;-86
2021/06/02 11:04:39;;;;;;;0.10;0.10;;;18.80;99.90;;;;;;5062470;28;20723;-85
2021/06/02 11:07:18;;;;;;;0.08;0.08;;;19.00;99.90;;;;;;5068222;28;20025;-86
2021/06/02 11:10:03;;;;;;;0.10;0.10;;;19.20;99.90;;;;;;5064455;28;20032;-86
2021/06/02 11:12:47;;;;;;;0.10;0.10;;;19.20;99.90;;;;;;5051311;28;20021;-85
2021/06/02 11:15:23;;;;;;;0.10;0.10;;;19.30;99.90;;;;;;5058803;28;20401;-85
2021/06/02 11:18:11;;;;;;;0.10;0.10;;;19.60;99.90;;;;;;5052758;28;20021;-84
2021/06/02 11:20:41;;;;;;;0.13;0.13;;;19.40;99.90;;;;;;5060682;28;20017;-84
2021/06/02 11:23:12;;;;;;;0.17;0.10;;;18.70;99.90;;;;;;5063604;28;20017;-85
2021/06/02 11:25:39;;;;;;;0.32;0.32;;;18.80;99.90;;;;;;5066132;28;20082;-86
2021/06/02 11:28:06;;;;;;;0.00;0.00;;;19.00;99.90;;;;;;5068078;28;20037;-86
2021/06/02 11:30:32;;;;;;;;;;;19.00;99.90;;;;;;5049701;28;20136;-85
2021/06/02 11:33:09;;;;;;;0.20;0.20;;;18.70;99.90;;;;;;5068210;28;19908;-85
2021/06/02 11:35:59;;;;;;;1.88;0.50;;;18.80;99.90;;;;;;5060789;28;20064;-86
2021/06/02 11:38:26;;;;;;;0.38;0.38;;;19.30;99.90;;;;;;5049515;28;20112;-86
2021/06/02 11:40:54;;;;;;;0.10;0.10;;;20.10;99.90;;;;;;5050208;28;20398;-86
2021/06/02 11:43:20;;;;;;;0.57;0.30;;;20.50;99.90;;;;;;5049920;28;20112;-86
2021/06/02 11:45:48;;;;;;;0.20;0.20;;;20.80;99.90;;;;;;5050082;28;20549;-87
2021/06/02 11:48:22;;;;;;;0.30;0.30;;;21.00;99.90;;;;;;5049754;28;20043;-86
2021/06/02 11:50:48;;;;;;;0.00;0.00;;;21.20;99.90;;;;;;5048483;28;20111;-86
2021/06/02 11:53:14;;;;;;;0.13;0.13;;;21.80;99.90;;;;;;5048308;28;20482;-86
2021/06/02 11:55:40;;;;;;;0.20;0.20;;;21.70;99.90;;;;;;5049642;28;20041;-86
2021/06/02 11:58:06;;;;;;;0.00;0.00;;;22.30;99.90;;;;;;5049633;28;20390;-86
2021/06/02 12:00:34;;;;;;;0.87;0.53;;;22.30;99.90;;;;;;5049611;28;20022;-86
2021/06/02 12:03:11;;;;;;;0.20;0.20;;;22.00;99.90;;;;;;5049479;28;20032;-86
2021/06/02 12:05:40;;;;;;;0.25;0.25;;;22.30;99.90;;;;;;5049336;28;20497;-86
2021/06/02 12:08:07;;;;;;;0.10;0.10;;;22.10;99.90;;;;;;5049308;28;20017;-86
2021/06/02 12:10:51;;;;;;;0.00;0.00;;;21.90;99.90;;;;;;5049211;28;20152;-85
2021/06/02 12:13:18;;;;;;;0.30;0.30;;;21.80;99.90;;;;;;5047680;28;20131;-88
2021/06/02 12:16:02;;;;;;;0.00;0.00;;;22.20;99.90;;;;;;5056453;28;20910;-86
2021/06/02 12:18:35;;;;;;;0.28;0.20;;;22.40;99.90;;;;;;5059292;28;20017;-85
2021/06/02 12:21:22;;;;;;;0.10;0.10;;;21.90;99.90;;;;;;5056702;28;20078;-85
2021/06/02 12:23:55;;;;;;;0.00;0.00;;;22.10;99.90;;;;;;5058139;28;20047;-85
2021/06/02 12:26:30;;;;;;;0.10;0.10;;;22.00;99.90;;;;;;5056884;28;20079;-85
2021/06/02 12:29:05;;;;;;;0.20;0.15;;;22.50;99.90;;;;;;5066615;28;20036;-85
2021/06/02 12:31:37;;;;;;;0.43;0.40;;;22.00;99.90;;;;;;5059264;28;20481;-85
2021/06/02 12:34:11;;;;;;;0.30;0.17;;;21.50;99.90;;;;;;5059564;28;20474;-85
2021/06/02 12:36:43;;;;;;;0.70;0.70;;;22.10;99.90;;;;;;5058790;28;20397;-86
2021/06/02 12:39:11;;;;;;;0.03;0.03;;;22.60;99.90;;;;;;5062820;28;20021;-86
2021/06/02 12:41:40;;;;;;;0.40;0.40;;;22.50;99.90;;;;;;5057329;28;20025;-86
2021/06/02 12:44:07;;;;;;;0.30;0.30;;;22.30;99.90;;;;;;5059792;28;20112;-85
2021/06/02 12:46:33;;;;;;;0.20;0.20;;;22.30;99.90;;;;;;5059744;28;20013;-85
2021/06/02 12:49:04;;;;;;;0.10;0.10;;;22.80;98.00;;;;;;5059123;28;20401;-85
2021/06/02 12:51:29;;;;;;;0.10;0.10;;;23.90;97.70;;;;;;5062679;28;20139;-85
2021/06/02 12:53:55;;;;;;;0.10;0.10;;;24.10;96.10;;;;;;5054759;28;20456;-85
2021/06/02 12:56:22;;;;;;;0.20;0.20;;;23.10;98.60;;;;;;5063445;28;20032;-85
2021/06/02 12:58:53;;;;;;;;;;;22.90;98.20;;;;;;5057757;28;20032;-85
2021/06/02 13:01:20;;;;;;;0.00;0.00;;;22.90;99.90;;;;;;5049811;28;19915;-85
2021/06/02 13:03:53;;;;;;;0.20;0.20;;;24.10;96.60;;;;;;5047967;28;20028;-86
2021/06/02 13:06:20;;;;;;;0.30;0.28;;;24.90;93.80;;;;;;5047829;28;20704;-86
2021/06/02 13:08:47;;;;;;;0.30;0.30;;;25.10;93.50;;;;;;5047530;28;20025;-86
2021/06/02 13:11:13;;;;;;;;;;;25.40;92.80;;;;;;5048451;28;20029;-86
2021/06/02 13:13:40;;;;;;;0.68;0.52;;;25.70;91.30;;;;;;5047507;28;19909;-86
2021/06/02 13:16:09;;;;;;;0.70;0.38;;;23.60;93.00;;;;;;5056065;28;20017;-86
2021/06/02 13:18:35;;;;;;;0.08;0.08;;;23.10;93.30;;;;;;5061127;28;20021;-86
2021/06/02 13:21:16;;;;;;;;;;;22.40;95.30;;;;;;5057943;28;20028;-86
2021/06/02 13:23:42;;;;;;;0.15;0.15;;;22.20;94.60;;;;;;5058384;28;19909;-87
2021/06/02 13:26:13;;;;;;;0.30;0.10;;;22.90;94.30;;;;;;5067756;28;20032;-86
2021/06/02 13:28:53;;;;;;;0.35;0.20;;;22.70;94.00;;;;;;5055567;28;20140;-85